Cedarfalls, Iowa
Current Conditions -  °F | °C
As of 3:54 PM on Sunday 21 Dec 2014 (Local Time) from KALO Reporting Station
Haze Haze  
Wind Chill: -1°   Ceiling: 800
Heat Index:   Visibility: 4mi
Dew Point:   Wind: 14mph
Humidity: 97%   Direction: 170°S
Pressure: 29.84"   Gusts: NA
Location:  42.5035°N, 92.4936°W
Report Text: KALO 212154Z 17012KT 4SM BR OVC008 03/03 A2984 RMK AO2 RAB31E40 SLP113 P0000 T00330028
Loading
Personal Weather Stations






























Interactive Weather Map New forecast layout! Learn more

10-Day Weather Forecast

Advertisements
Track Severe Weather on mobile